Time;durP1;ratioP1;P1;durP2;ratioP2;P2;SDS_P1;SDS_P2;PMS_P1;PMS_P2;Temp;Humidity;BMP_temperature;BMP_pressure;BME280_temperature;BME280_humidity;BME280_pressure;Samples;Min_cycle;Max_cycle;Signal;HPM_P1;HPM_P2
2023/06/02 00:02:23;;;;;;;4.65;2.53;;;;;;;20.96;37.48;101824.81;5033844;28;20508;-58
2023/06/02 00:04:49;;;;;;;3.33;2.00;;;;;;;20.92;37.47;101835.19;5033455;28;20041;-58
2023/06/02 00:07:15;;;;;;;3.33;2.38;;;;;;;20.90;37.54;101829.06;5033548;28;20029;-58
2023/06/02 00:09:43;;;;;;;4.95;2.20;;;;;;;20.87;37.65;101837.59;5033447;28;20032;-58
2023/06/02 00:12:11;;;;;;;3.53;2.10;;;;;;;20.87;37.68;101832.13;5033783;28;20381;-58
2023/06/02 00:14:43;;;;;;;3.53;2.17;;;;;;;20.90;37.95;101826.34;5033186;28;20030;-58
2023/06/02 00:17:10;;;;;;;3.63;2.03;;;;;;;20.89;37.72;101824.63;5033088;28;20067;-58
2023/06/02 00:19:37;;;;;;;2.08;1.77;;;;;;;20.90;37.35;101823.63;5032901;28;20045;-58
2023/06/02 00:22:05;;;;;;;5.18;2.28;;;;;;;20.90;38.02;101826.34;5033088;28;20072;-58
2023/06/02 00:24:30;;;;;;;6.57;2.03;;;;;;;20.88;37.51;101818.34;5032714;28;20053;-59
2023/06/02 00:26:56;;;;;;;5.85;2.58;;;;;;;20.80;37.51;101825.66;5031519;28;20519;-56
2023/06/02 00:29:21;;;;;;;4.15;2.15;;;;;;;20.63;37.88;101796.75;5033061;28;20647;-56
2023/06/02 00:31:47;;;;;;;8.32;2.55;;;;;;;20.76;37.57;101829.75;5032938;28;20041;-56
2023/06/02 00:34:12;;;;;;;3.83;1.70;;;;;;;20.77;37.71;101826.03;5032997;28;20044;-56
2023/06/02 00:36:37;;;;;;;6.00;2.20;;;;;;;20.76;37.73;101829.75;5048562;28;20485;-57
2023/06/02 00:39:03;;;;;;;4.22;2.78;;;;;;;20.75;37.45;101823.47;5033233;28;20087;-56
2023/06/02 01:35:15;;;;;;;3.67;1.77;;;;;;;20.68;36.71;101824.31;5013448;28;20528;-56
2023/06/02 01:37:48;;;;;;;5.32;1.83;;;;;;;20.65;37.23;101827.38;5013933;28;20038;-56
2023/06/02 01:40:15;;;;;;;8.48;1.90;;;;;;;20.64;37.30;101831.13;5016398;28;20080;-56
2023/06/02 01:42:41;;;;;;;1.85;1.17;;;;;;;20.60;37.47;101832.50;5014819;28;20022;-56
2023/06/02 01:45:07;;;;;;;1.75;1.40;;;;;;;20.54;37.49;101830.44;5016755;28;20025;-56
2023/06/02 01:47:33;;;;;;;3.40;2.40;;;;;;;20.47;37.51;101824.81;5014713;28;20037;-58
2023/06/02 01:49:58;;;;;;;3.45;1.23;;;;;;;20.42;37.14;101832.63;5031271;28;20038;-58
2023/06/02 01:52:25;;;;;;;7.25;2.00;;;;;;;20.37;37.35;101823.28;5016167;28;20100;-58
2023/06/02 01:54:51;;;;;;;9.90;2.38;;;;;;;20.31;37.38;101825.66;5015868;28;20029;-58
2023/06/02 01:57:16;;;;;;;6.78;1.90;;;;;;;20.28;37.26;101831.44;5016353;28;20046;-58
2023/06/02 01:59:42;;;;;;;4.13;1.60;;;;;;;20.23;37.61;101828.34;5015776;28;20099;-58
2023/06/02 02:02:07;;;;;;;2.75;1.73;;;;;;;20.21;37.42;101834.97;5014795;28;20042;-58
2023/06/02 02:04:33;;;;;;;2.20;1.83;;;;;;;20.21;37.04;101829.53;5015856;28;20464;-58
2023/06/02 02:07:01;;;;;;;5.45;1.85;;;;;;;20.18;37.59;101835.31;5032004;28;20049;-58
2023/06/02 02:09:27;;;;;;;6.10;2.60;;;;;;;20.09;37.07;101837.16;5035737;28;20100;-58
2023/06/02 02:11:52;;;;;;;3.55;1.88;;;;;;;20.12;36.99;101841.41;5035442;28;20120;-58
2023/06/02 02:14:19;;;;;;;5.35;1.90;;;;;;;20.10;37.42;101836.13;5017966;28;20043;-58
2023/06/02 02:16:49;;;;;;;3.15;1.52;;;;;;;20.07;37.21;101839.16;5035496;28;20516;-59
2023/06/02 02:19:16;;;;;;;3.65;1.83;;;;;;;20.05;37.19;101841.22;5034173;28;20489;-58
2023/06/02 02:21:42;;;;;;;2.30;1.65;;;;;;;20.04;37.56;101839.53;5035788;28;20033;-58
2023/06/02 02:24:07;;;;;;;4.13;1.85;;;;;;;20.02;37.49;101840.69;5035946;28;20097;-58
2023/06/02 02:26:32;;;;;;;6.72;2.40;;;;;;;19.98;37.25;101840.19;5035032;28;20064;-58
2023/06/02 02:28:58;;;;;;;6.65;2.15;;;;;;;19.95;37.69;101845.09;5035342;28;20033;-57
2023/06/02 02:31:24;;;;;;;8.63;2.20;;;;;;;19.90;37.69;101847.47;5034855;28;20564;-58
2023/06/02 02:33:50;;;;;;;4.00;2.03;;;;;;;19.87;37.70;101843.22;5033660;28;20032;-58
2023/06/02 02:36:17;;;;;;;2.53;2.03;;;;;;;19.81;38.28;101841.13;5035276;28;20033;-58
2023/06/02 02:38:42;;;;;;;8.95;2.40;;;;;;;19.80;37.39;101844.84;5033532;28;20051;-58
2023/06/02 02:41:08;;;;;;;8.75;1.92;;;;;;;19.77;37.67;101850.63;5034668;28;20029;-58
2023/06/02 02:43:33;;;;;;;8.00;1.92;;;;;;;19.71;37.52;101848.56;5035125;28;20033;-58
2023/06/02 02:45:59;;;;;;;4.35;2.40;;;;;;;19.64;37.62;101837.50;5033548;28;20485;-58
2023/06/02 02:48:24;;;;;;;3.95;2.25;;;;;;;19.60;37.80;101846.97;5033725;28;20017;-58
2023/06/02 02:50:50;;;;;;;2.83;1.90;;;;;;;19.54;38.54;101847.63;5034843;28;20514;-58
2023/06/02 02:53:16;;;;;;;6.47;2.67;;;;;;;19.50;37.24;101850.84;5034678;28;20045;-58
2023/06/02 02:55:44;;;;;;;3.30;1.65;;;;;;;19.48;37.65;101852.88;5035332;28;20042;-58
2023/06/02 02:58:09;;;;;;;5.60;1.83;;;;;;;19.49;37.44;101854.56;5030696;28;20073;-58
2023/06/02 03:00:35;;;;;;;6.20;2.00;;;;;;;19.50;37.63;101849.00;5046236;28;20069;-59
2023/06/02 03:03:01;;;;;;;5.57;2.08;;;;;;;19.49;37.22;101854.56;5034590;28;20117;-58
2023/06/02 03:05:27;;;;;;;4.15;1.90;;;;;;;19.46;37.44;101855.75;5033641;28;20045;-58
2023/06/02 03:07:52;;;;;;;1.95;1.23;;;;;;;19.48;37.64;101863.75;5034767;28;20103;-58
2023/06/02 03:10:17;;;;;;;4.13;1.85;;;;;;;19.48;37.32;101863.75;5034507;28;20034;-58
2023/06/02 03:12:43;;;;;;;5.97;1.85;;;;;;;19.42;37.66;101864.41;5033168;28;20025;-58
2023/06/02 03:15:09;;;;;;;5.70;1.50;;;;;;;19.39;37.11;101862.00;5034720;28;20025;-58
2023/06/02 03:17:37;;;;;;;2.85;1.40;;;;;;;19.39;37.30;101867.44;5032830;28;20061;-57
2023/06/02 03:20:04;;;;;;;2.17;1.63;;;;;;;19.38;37.20;101858.41;5034121;28;20128;-58
2023/06/02 03:22:31;;;;;;;3.95;1.33;;;;;;;19.38;37.58;101860.25;5034144;28;20163;-58
2023/06/02 03:24:57;;;;;;;4.55;1.77;;;;;;;19.36;37.54;101865.00;5034308;28;20166;-58
2023/06/02 03:27:23;;;;;;;6.38;2.33;;;;;;;19.35;37.50;101868.72;5034302;28;20021;-59
2023/06/02 03:29:49;;;;;;;3.88;1.52;;;;;;;19.19;37.60;101837.75;5032852;28;20040;-58
2023/06/02 03:32:14;;;;;;;5.78;1.92;;;;;;;19.32;37.18;101874.50;5033785;28;20404;-58
2023/06/02 03:34:40;;;;;;;5.57;1.52;;;;;;;19.27;37.90;101865.94;5034315;28;20045;-58
2023/06/02 03:37:06;;;;;;;5.60;1.70;;;;;;;19.07;37.25;101833.56;5049452;28;20038;-58
2023/06/02 03:39:32;;;;;;;2.97;2.33;;;;;;;19.19;37.68;101858.63;5034414;28;20029;-57
2023/06/02 03:41:58;;;;;;;6.82;1.77;;;;;;;19.22;37.36;101869.16;5033563;28;20044;-58
2023/06/02 03:44:23;;;;;;;16.50;2.72;;;;;;;19.22;37.90;101873.75;5033572;28;20405;-58
2023/06/02 03:46:49;;;;;;;8.30;1.90;;;;;;;19.18;37.31;101876.78;5032129;28;20041;-58
2023/06/02 03:49:14;;;;;;;3.13;2.13;;;;;;;19.22;37.40;101879.16;5033680;28;20060;-58
2023/06/02 03:51:43;;;;;;;5.78;1.65;;;;;;;19.24;36.94;101874.44;5032604;28;20485;-58
2023/06/02 03:54:08;;;;;;;8.27;2.33;;;;;;;19.18;36.88;101855.03;5034223;28;20025;-58
2023/06/02 03:56:33;;;;;;;5.70;1.75;;;;;;;19.25;37.38;101868.84;5034015;28;20527;-58
2023/06/02 03:58:59;;;;;;;6.82;1.67;;;;;;;19.27;37.61;101871.38;5032721;28;20091;-58
2023/06/02 04:01:24;;;;;;;6.10;2.00;;;;;;;19.27;37.20;101869.53;5033409;28;20052;-58
2023/06/02 04:03:50;;;;;;;6.97;2.88;;;;;;;19.28;37.37;101873.09;5033424;28;20029;-58
2023/06/02 04:06:15;;;;;;;6.55;1.48;;;;;;;19.24;37.34;101871.72;5033686;28;20040;-58
2023/06/02 04:08:41;;;;;;;5.57;2.08;;;;;;;19.24;37.05;101871.72;5033157;28;20038;-58
2023/06/02 04:11:07;;;;;;;3.10;1.42;;;;;;;19.07;37.03;101846.28;5033288;28;20047;-58
2023/06/02 04:13:32;;;;;;;3.65;1.23;;;;;;;19.19;37.14;101864.91;5034316;28;20041;-58
2023/06/02 04:15:58;;;;;;;11.65;2.13;;;;;;;19.19;37.24;101878.50;5033464;28;20404;-58
2023/06/02 04:18:24;;;;;;;8.23;1.70;;;;;;;19.19;37.01;101875.78;5033683;28;20030;-58
2023/06/02 04:20:50;;;;;;;3.42;1.23;;;;;;;19.19;37.45;101881.19;5033086;28;20037;-58
2023/06/02 04:23:16;;;;;;;7.22;1.20;;;;;;;19.19;37.15;101870.34;5032880;28;20417;-58
2023/06/02 04:25:41;;;;;;;6.95;1.65;;;;;;;19.21;37.29;101877.50;5033073;28;20033;-58
2023/06/02 04:28:07;;;;;;;6.25;2.05;;;;;;;19.23;37.45;101875.47;5033178;28;20042;-58
2023/06/02 04:30:35;;;;;;;3.13;1.40;;;;;;;19.20;37.07;101882.06;5033627;28;20029;-58
2023/06/02 04:33:01;;;;;;;4.18;1.55;;;;;;;19.19;37.44;101881.19;5032931;28;20037;-58
2023/06/02 04:35:27;;;;;;;6.57;1.58;;;;;;;19.22;36.98;101882.75;5032751;28;20064;-58
2023/06/02 04:37:52;;;;;;;8.13;1.80;;;;;;;19.17;36.98;101876.94;5033029;28;20029;-58
2023/06/02 04:40:17;;;;;;;2.95;1.70;;;;;;;19.22;37.34;101879.16;5032097;28;20042;-58
2023/06/02 04:42:43;;;;;;;6.93;1.77;;;;;;;19.23;37.02;101872.75;5032558;28;20025;-58
2023/06/02 04:45:13;;;;;;;9.98;1.77;;;;;;;19.21;36.69;101885.63;5033317;28;20096;-58
2023/06/02 04:47:40;;;;;;;6.40;1.98;;;;;;;19.11;37.48;101862.13;5032641;28;20484;-58
2023/06/02 04:50:09;;;;;;;5.50;1.65;;;;;;;19.22;37.45;101881.88;5031665;28;20037;-58
2023/06/02 04:52:38;;;;;;;8.32;1.92;;;;;;;19.23;36.88;101883.59;5032753;28;20429;-58
2023/06/02 04:55:04;;;;;;;4.32;1.58;;;;;;;19.20;37.44;101887.50;5033094;28;20452;-58
2023/06/02 04:57:30;;;;;;;3.35;1.83;;;;;;;19.22;37.24;101882.75;5033265;28;20034;-58
2023/06/02 04:59:55;;;;;;;4.38;1.80;;;;;;;19.25;36.83;101884.28;5032814;28;20029;-58
2023/06/02 05:02:21;;;;;;;6.82;1.48;;;;;;;19.26;37.61;101875.13;5032503;28;20033;-58
2023/06/02 05:04:46;;;;;;;8.73;2.10;;;;;;;19.29;36.86;101880.25;5032529;28;20038;-58
2023/06/02 05:07:12;;;;;;;9.18;1.30;;;;;;;19.31;37.57;101878.22;5032607;28;20454;-58
2023/06/02 05:09:37;;;;;;;7.97;1.83;;;;;;;19.32;37.90;101890.81;5032852;28;20029;-58
2023/06/02 05:12:03;;;;;;;6.05;1.80;;;;;;;19.28;37.14;101892.13;5036729;28;20021;-57
2023/06/02 05:14:28;;;;;;;3.22;1.58;;;;;;;19.28;37.01;101883.97;5051845;28;20033;-58
2023/06/02 05:16:55;;;;;;;9.43;2.50;;;;;;;19.27;36.71;101888.56;5035313;28;20038;-58
2023/06/02 05:19:20;;;;;;;7.35;1.80;;;;;;;18.94;37.22;101838.59;5036422;28;20037;-58
2023/06/02 05:21:46;;;;;;;8.73;1.67;;;;;;;19.25;37.86;101895.16;5036464;28;20032;-58
2023/06/02 05:24:11;;;;;;;7.68;1.48;;;;;;;19.26;37.84;101896.88;5036933;28;20091;-58
2023/06/02 05:26:37;;;;;;;5.75;1.90;;;;;;;19.28;37.02;101900.28;5036251;28;20424;-58
2023/06/02 05:29:02;;;;;;;6.53;1.95;;;;;;;19.32;37.70;101901.69;5036510;28;20033;-58
2023/06/02 05:31:28;;;;;;;5.22;1.77;;;;;;;19.33;36.88;101890.63;5036290;28;20038;-58
2023/06/02 05:33:53;;;;;;;7.90;1.98;;;;;;;19.36;37.52;101892.19;5036216;28;20473;-58
2023/06/02 05:36:19;;;;;;;3.55;1.42;;;;;;;19.39;37.41;101892.75;5036759;28;20045;-58
2023/06/02 05:38:44;;;;;;;10.95;2.95;;;;;;;19.40;37.43;101891.72;5036003;28;20060;-58
2023/06/02 05:41:11;;;;;;;8.77;2.17;;;;;;;19.42;37.17;101892.44;5036104;28;20034;-57
2023/06/02 05:43:36;;;;;;;5.95;1.92;;;;;;;19.45;37.42;101899.41;5036207;28;20045;-57
2023/06/02 05:46:02;;;;;;;6.80;1.60;;;;;;;19.46;37.43;101898.38;5036537;28;20049;-58
2023/06/02 05:48:27;;;;;;;9.40;2.17;;;;;;;19.48;37.98;101896.38;5036576;28;20363;-58
2023/06/02 05:50:52;;;;;;;7.55;1.85;;;;;;;19.45;37.45;101892.09;5034545;28;20120;-58
2023/06/02 05:53:18;;;;;;;7.35;2.05;;;;;;;19.41;37.40;101889.84;5035720;28;20073;-58
2023/06/02 05:55:43;;;;;;;10.25;2.28;;;;;;;19.36;37.70;101889.47;5035687;28;20064;-58
2023/06/02 05:58:09;;;;;;;7.88;2.40;;;;;;;19.36;37.07;101892.19;5035932;28;20389;-58
2023/06/02 06:00:34;;;;;;;4.90;2.00;;;;;;;19.37;37.64;101893.88;5035759;28;20096;-59
2023/06/02 06:02:59;;;;;;;8.07;1.83;;;;;;;19.42;37.27;101897.88;5035425;28;20037;-58
2023/06/02 06:05:25;;;;;;;5.63;1.75;;;;;;;19.46;37.20;101895.66;5051013;28;20408;-60
2023/06/02 06:07:50;;;;;;;7.63;2.22;;;;;;;19.50;37.39;101888.91;5035814;28;20116;-58
2023/06/02 06:10:16;;;;;;;7.22;2.00;;;;;;;19.55;37.74;101897.41;5035591;28;20037;-58
2023/06/02 06:12:41;;;;;;;4.32;1.55;;;;;;;19.58;37.04;101891.66;5035639;28;20024;-59
2023/06/02 06:15:07;;;;;;;5.22;1.85;;;;;;;19.61;37.54;101894.06;5035990;28;20061;-58
2023/06/02 06:17:32;;;;;;;6.28;2.00;;;;;;;19.61;37.42;101896.78;5035462;28;20037;-58
2023/06/02 06:19:58;;;;;;;7.93;1.90;;;;;;;19.63;37.26;101889.31;5033977;28;20065;-58
2023/06/02 06:22:23;;;;;;;9.07;2.35;;;;;;;19.64;37.22;101896.47;5034388;28;20095;-58
2023/06/02 06:24:48;;;;;;;9.48;2.83;;;;;;;19.51;37.30;101874.31;5035392;28;20104;-59
2023/06/02 06:27:14;;;;;;;6.03;1.80;;;;;;;19.67;37.36;101893.41;5035748;28;20096;-59
2023/06/02 06:29:39;;;;;;;5.65;2.05;;;;;;;19.60;36.63;101878.75;5035008;28;20033;-58
2023/06/02 06:32:07;;;;;;;8.75;2.38;;;;;;;19.68;37.46;101893.25;5035025;28;20034;-58
2023/06/02 06:34:33;;;;;;;9.07;2.15;;;;;;;19.70;37.39;101896.66;5033655;28;20049;-58
2023/06/02 06:36:59;;;;;;;13.95;2.38;;;;;;;19.55;37.46;101870.22;5035225;28;20542;-58
2023/06/02 06:39:24;;;;;;;5.50;2.35;;;;;;;19.74;37.04;101899.88;5035246;28;20096;-58
2023/06/02 06:41:50;;;;;;;7.10;2.17;;;;;;;19.77;37.32;101902.28;5034983;28;20470;-58
2023/06/02 06:44:15;;;;;;;4.80;1.98;;;;;;;19.61;37.27;101877.75;5034854;28;20030;-58
2023/06/02 06:46:40;;;;;;;8.75;2.28;;;;;;;19.79;37.32;101900.28;5034657;28;20037;-58
2023/06/02 06:49:06;;;;;;;8.98;2.03;;;;;;;19.82;37.46;101908.09;5034952;28;20052;-58
2023/06/02 06:51:31;;;;;;;14.43;2.60;;;;;;;19.84;37.63;101906.06;5035275;28;20374;-59
2023/06/02 06:53:56;;;;;;;5.75;2.22;;;;;;;19.86;37.16;101909.47;5034559;28;20033;-58
2023/06/02 06:56:22;;;;;;;12.07;3.30;;;;;;;19.87;37.55;101913.06;5034546;28;20501;-59
2023/06/02 06:58:47;;;;;;;8.05;2.15;;;;;;;19.90;36.95;101913.59;5034456;28;20090;-59
2023/06/02 07:01:13;;;;;;;6.13;1.80;;;;;;;19.89;37.20;101911.88;5034592;28;20034;-58
2023/06/02 07:03:39;;;;;;;9.85;2.83;;;;;;;19.89;37.60;101911.88;5034280;28;20546;-59
2023/06/02 07:06:04;;;;;;;7.43;2.25;;;;;;;19.88;37.52;101909.34;5033815;28;20037;-59
2023/06/02 07:08:30;;;;;;;8.85;2.47;;;;;;;19.90;37.67;101907.28;5034540;28;20120;-58
2023/06/02 07:10:55;;;;;;;7.57;2.35;;;;;;;19.72;37.47;101886.47;5033231;28;20037;-58
2023/06/02 07:13:21;;;;;;;7.88;2.28;;;;;;;19.91;37.61;101914.41;5034098;28;20056;-58
2023/06/02 07:15:46;;;;;;;8.07;1.85;;;;;;;19.96;37.26;101906.66;5034241;28;20040;-59
2023/06/02 07:18:12;;;;;;;7.65;1.67;;;;;;;20.03;37.60;101910.41;5034702;28;20113;-59
2023/06/02 07:20:37;;;;;;;6.07;2.47;;;;;;;20.09;37.41;101912.47;5034186;28;20041;-58
2023/06/02 07:23:03;;;;;;;6.90;2.58;;;;;;;20.15;37.01;101914.53;5034120;28;20057;-58
2023/06/02 07:25:28;;;;;;;5.32;2.10;;;;;;;20.18;36.75;101912.31;5034116;28;20029;-58
2023/06/02 07:27:54;;;;;;;11.38;2.40;;;;;;;20.22;37.35;101919.16;5034292;28;20029;-59
2023/06/02 07:30:20;;;;;;;9.90;2.17;;;;;;;20.28;36.69;101921.25;5034588;28;20052;-58
2023/06/02 07:32:45;;;;;;;3.83;1.80;;;;;;;20.36;36.66;101916.81;5033813;28;20163;-59
2023/06/02 07:35:10;;;;;;;4.22;1.60;;;;;;;20.44;36.78;101916.84;5034171;28;20132;-58
2023/06/02 07:37:36;;;;;;;5.45;2.13;;;;;;;20.50;37.16;101921.63;5033992;28;20041;-58
2023/06/02 07:40:01;;;;;;;5.57;1.60;;;;;;;20.40;36.99;101882.81;5034240;28;20095;-58
2023/06/02 07:42:27;;;;;;;8.95;2.00;;;;;;;20.29;36.30;101865.81;5034431;28;20512;-58
2023/06/02 07:44:52;;;;;;;5.05;1.70;;;;;;;20.64;36.74;101924.56;5033758;28;20059;-58
2023/06/02 07:47:17;;;;;;;8.88;2.25;;;;;;;20.58;35.98;101891.69;5033617;28;20183;-59
2023/06/02 07:49:43;;;;;;;10.05;2.40;;;;;;;20.76;36.61;101914.19;5033620;28;20033;-58
2023/06/02 07:52:08;;;;;;;7.43;1.90;;;;;;;20.79;35.96;101911.13;5033884;28;20044;-58
2023/06/02 07:54:34;;;;;;;9.23;1.98;;;;;;;20.81;36.03;101915.38;5034339;28;20017;-58
2023/06/02 07:56:59;;;;;;;7.85;1.98;;;;;;;20.83;36.67;101907.88;5033491;28;20037;-58
2023/06/02 07:59:25;;;;;;;7.30;1.75;;;;;;;20.88;36.22;101912.84;5033663;28;20037;-59
2023/06/02 08:01:51;;;;;;;14.55;2.35;;;;;;;20.96;36.42;101918.28;5033570;28;20036;-58
2023/06/02 08:04:16;;;;;;;6.18;2.03;;;;;;;21.02;36.59;101919.47;5033256;28;20049;-58
2023/06/02 08:06:42;;;;;;;8.05;2.22;;;;;;;21.13;36.02;101914.59;5032080;28;20021;-56
2023/06/02 08:09:08;;;;;;;10.85;2.10;;;;;;;21.22;35.46;101920.84;5032829;28;20410;-56
2023/06/02 08:11:34;;;;;;;10.15;2.47;;;;;;;21.30;35.41;101916.25;5033326;28;20034;-56
2023/06/02 08:13:59;;;;;;;4.82;1.90;;;;;;;21.36;35.96;101915.56;5033408;28;20039;-56
2023/06/02 08:16:25;;;;;;;11.45;2.45;;;;;;;21.45;35.34;101917.25;5033260;28;20394;-56
2023/06/02 08:18:50;;;;;;;11.23;2.53;;;;;;;21.54;35.83;101914.50;5033456;28;20502;-57
2023/06/02 08:21:16;;;;;;;4.15;1.92;;;;;;;21.63;35.42;101916.19;5032338;28;20079;-56
2023/06/02 08:23:41;;;;;;;7.60;1.88;;;;;;;21.71;35.59;101918.91;5033143;28;20489;-56
2023/06/02 08:26:06;;;;;;;7.85;2.45;;;;;;;21.74;35.48;101924.00;5032978;28;20126;-56
2023/06/02 08:28:33;;;;;;;4.75;1.75;;;;;;;21.60;35.22;101889.28;5033422;28;20449;-56
2023/06/02 08:30:59;;;;;;;4.57;2.22;;;;;;;21.78;35.28;101917.16;5033364;28;20091;-57
2023/06/02 08:33:24;;;;;;;5.72;1.98;;;;;;;21.81;35.15;101928.56;5033389;28;20392;-56
2023/06/02 08:35:51;;;;;;;10.88;2.22;;;;;;;21.84;35.01;101919.19;5033246;28;20053;-56
2023/06/02 08:38:22;;;;;;;7.97;2.22;;;;;;;21.87;35.38;101921.59;5048389;28;20060;-56
2023/06/02 08:40:47;;;;;;;5.30;2.53;;;;;;;21.88;34.52;101917.84;5032656;28;20045;-56
2023/06/02 08:43:14;;;;;;;5.88;2.05;;;;;;;21.92;34.42;101924.63;5032580;28;20057;-56
2023/06/02 08:45:41;;;;;;;9.02;2.72;;;;;;;21.93;34.73;101918.16;5032344;28;20170;-56
2023/06/02 08:48:07;;;;;;;8.90;1.60;;;;;;;22.00;35.51;101909.09;5032101;28;20032;-56
2023/06/02 08:50:34;;;;;;;9.65;2.92;;;;;;;22.12;34.23;101901.38;5047946;28;20405;-56
2023/06/02 08:53:04;;;;;;;8.30;2.30;;;;;;;22.26;34.44;101900.59;5048491;28;20119;-56
2023/06/02 08:55:29;;;;;;;5.70;2.38;;;;;;;22.39;35.09;101900.88;5048023;28;20036;-56
2023/06/02 08:57:55;;;;;;;8.35;2.53;;;;;;;22.57;33.89;101885.06;5032683;28;20041;-56
2023/06/02 09:00:20;;;;;;;5.00;2.22;;;;;;;22.90;34.37;101912.16;5032917;28;20022;-56
2023/06/02 09:02:47;;;;;;;8.27;2.15;;;;;;;23.06;33.50;101901.09;5032443;28;20045;-56
2023/06/02 09:05:16;;;;;;;5.13;1.70;;;;;;;23.28;34.09;101910.28;5032772;28;20034;-57
2023/06/02 09:07:43;;;;;;;8.60;2.30;;;;;;;23.53;33.96;101896.22;5032727;28;20513;-56
2023/06/02 09:10:08;;;;;;;13.20;1.60;;;;;;;23.48;33.02;101912.31;5031501;28;20067;-56
2023/06/02 09:12:50;;;;;;;8.20;1.90;;;;;;;23.27;33.45;101879.34;5033319;28;20022;-56
2023/06/02 09:15:16;;;;;;;3.95;1.73;;;;;;;23.39;34.03;101921.66;5032953;28;20045;-56
2023/06/02 09:17:41;;;;;;;6.63;1.52;;;;;;;23.51;32.88;101911.94;5031223;28;20034;-57
2023/06/02 09:20:10;;;;;;;12.15;2.08;;;;;;;23.57;32.56;101905.72;5032329;28;20042;-56
2023/06/02 09:22:35;;;;;;;7.53;2.08;;;;;;;23.95;32.30;101913.84;5031296;28;20038;-56
2023/06/02 09:25:01;;;;;;;3.95;1.67;;;;;;;24.39;32.00;101917.41;5032271;28;20552;-56
2023/06/02 09:27:27;;;;;;;11.55;2.13;;;;;;;24.31;32.24;101909.31;5032978;28;20080;-56
2023/06/02 09:30:00;;;;;;;5.20;1.55;;;;;;;24.30;32.13;101910.31;5031030;28;20472;-56
2023/06/02 09:32:26;;;;;;;9.50;2.30;;;;;;;24.52;31.82;101912.06;5032225;28;20414;-57
2023/06/02 09:34:51;;;;;;;7.68;2.03;;;;;;;24.70;32.14;101912.47;5032355;28;20053;-57
2023/06/02 09:37:18;;;;;;;9.85;2.17;;;;;;;24.81;32.25;101912.00;5032240;28;20117;-56
2023/06/02 09:39:53;;;;;;;6.07;2.35;;;;;;;24.72;32.27;101910.38;5032306;28;20029;-57
2023/06/02 09:42:19;;;;;;;13.35;2.58;;;;;;;24.64;32.33;101916.00;5032334;28;20025;-56
2023/06/02 09:45:06;;;;;;;5.20;1.92;;;;;;;24.67;32.36;101907.38;5032238;28;20057;-56
2023/06/02 09:47:40;;;;;;;7.60;1.98;;;;;;;24.72;32.13;101907.66;5031945;28;20045;-56
2023/06/02 09:50:07;;;;;;;7.75;2.05;;;;;;;24.75;32.64;101911.88;5032272;28;20525;-57
2023/06/02 09:52:32;;;;;;;10.20;2.28;;;;;;;24.75;31.79;101907.25;5032415;28;20057;-57
2023/06/02 09:54:59;;;;;;;6.07;2.17;;;;;;;24.89;32.43;101908.25;5047357;28;20041;-57
2023/06/02 09:57:24;;;;;;;8.05;2.38;;;;;;;25.40;31.75;101895.19;5033352;28;20029;-57
2023/06/02 09:59:51;;;;;;;9.32;1.80;;;;;;;25.55;31.36;101893.19;5035839;28;20049;-57
2023/06/02 10:02:16;;;;;;;5.05;1.63;;;;;;;25.69;31.38;101894.13;5034403;28;20033;-57
2023/06/02 10:04:41;;;;;;;8.68;1.70;;;;;;;25.88;31.00;101894.25;5035403;28;20040;-57
2023/06/02 10:07:23;;;;;;;10.25;2.70;;;;;;;25.64;31.42;101893.91;5034417;28;20068;-57
2023/06/02 10:10:17;;;;;;;10.63;2.17;;;;;;;25.62;31.08;101882.28;5051129;28;20431;-56
2023/06/02 10:13:01;;;;;;;9.38;1.80;;;;;;;25.61;31.36;101886.91;5016157;28;20041;-58
2023/06/02 10:15:44;;;;;;;6.82;1.77;;;;;;;25.79;31.47;101883.66;5036009;28;20035;-57
2023/06/02 10:18:51;;;;;;;9.90;2.53;;;;;;;25.73;31.34;101879.81;5035533;28;20072;-56
2023/06/02 10:21:34;;;;;;;3.67;2.00;;;;;;;25.74;31.60;101878.75;4993791;28;20050;-57
2023/06/02 10:24:27;;;;;;;7.35;1.90;;;;;;;26.74;29.76;101878.94;4977651;28;20048;-57
2023/06/02 10:27:08;;;;;;;7.50;1.77;;;;;;;27.32;30.05;101870.91;5025236;28;20045;-57
2023/06/02 10:29:35;;;;;;;5.40;1.88;;;;;;;27.53;29.60;101870.69;5034541;28;20095;-58
2023/06/02 10:32:19;;;;;;;4.78;1.75;;;;;;;27.67;30.09;101864.06;5050304;28;20037;-57
2023/06/02 10:34:49;;;;;;;7.10;2.10;;;;;;;27.86;29.04;101871.47;5034754;28;20111;-57
2023/06/02 10:37:15;;;;;;;5.72;2.20;;;;;;;28.16;28.61;101864.38;5033770;28;20033;-59
2023/06/02 10:39:40;;;;;;;8.98;2.20;;;;;;;27.68;29.36;101868.53;5050439;28;20121;-57
2023/06/02 10:42:10;;;;;;;5.30;1.77;;;;;;;27.24;29.71;101873.88;5035379;28;20079;-57
2023/06/02 10:44:35;;;;;;;9.13;2.08;;;;;;;27.52;29.01;101863.50;5034916;28;20409;-57
2023/06/02 10:47:19;;;;;;;7.68;2.30;;;;;;;27.84;28.71;101870.81;5035040;28;20554;-57
2023/06/02 10:49:58;;;;;;;6.82;1.75;;;;;;;28.33;28.52;101869.34;5035046;28;20041;-57
2023/06/02 10:52:27;;;;;;;7.38;2.00;;;;;;;28.68;28.48;101856.84;5035147;28;20041;-57
2023/06/02 10:55:07;;;;;;;5.60;2.38;;;;;;;28.91;28.87;101840.56;5033827;28;20079;-57
2023/06/02 10:57:51;;;;;;;5.90;1.60;;;;;;;29.26;28.13;101860.19;5035715;28;20040;-57
2023/06/02 11:00:43;;;;;;;8.65;2.28;;;;;;;29.43;28.33;101851.13;5034524;28;20163;-58
2023/06/02 11:03:17;;;;;;;7.63;2.50;;;;;;;29.67;28.03;101845.78;5035429;28;20093;-57
2023/06/02 11:05:44;;;;;;;6.75;2.20;;;;;;;29.84;27.42;101847.72;5034684;28;20504;-57
2023/06/02 11:08:18;;;;;;;9.80;2.30;;;;;;;30.04;27.87;101847.44;5034445;28;20566;-57
2023/06/02 11:10:47;;;;;;;4.00;1.98;;;;;;;30.25;27.45;101849.72;5034409;28;20116;-57
2023/06/02 11:13:18;;;;;;;9.73;2.70;;;;;;;30.56;27.13;101849.50;5034406;28;20073;-57
2023/06/02 11:15:58;;;;;;;7.55;2.55;;;;;;;30.88;27.37;101840.88;5034236;28;20452;-57
2023/06/02 11:18:31;;;;;;;10.60;2.95;;;;;;;31.07;26.40;101845.31;5034506;28;20477;-57
2023/06/02 11:20:57;;;;;;;5.75;2.30;;;;;;;31.22;26.53;101844.81;5034061;28;20103;-58
2023/06/02 11:23:23;;;;;;;9.02;2.40;;;;;;;31.28;26.01;101822.53;5033896;28;20042;-58
2023/06/02 11:26:02;;;;;;;11.35;2.60;;;;;;;31.44;25.98;101837.56;5034040;28;20091;-58
2023/06/02 11:28:28;;;;;;;4.50;2.15;;;;;;;31.57;25.85;101840.97;5034183;28;20037;-57
2023/06/02 11:31:16;;;;;;;7.40;2.88;;;;;;;31.74;26.14;101837.44;5033947;28;20116;-58
2023/06/02 11:33:50;;;;;;;12.02;2.40;;;;;;;31.78;25.28;101830.31;5033940;28;20018;-58
2023/06/02 11:36:18;;;;;;;7.13;2.47;;;;;;;31.74;25.36;101831.91;5034164;28;20567;-58
2023/06/02 11:38:43;;;;;;;6.70;3.17;;;;;;;31.98;25.91;101830.75;5032402;28;20049;-57
2023/06/02 11:41:16;;;;;;;7.53;2.20;;;;;;;32.21;24.97;101839.00;5034032;28;20037;-57
2023/06/02 11:43:44;;;;;;;8.98;2.42;;;;;;;32.43;25.15;101831.66;5033140;28;20061;-58
2023/06/02 11:46:17;;;;;;;7.15;2.25;;;;;;;32.52;24.64;101812.69;5034276;28;20128;-58
2023/06/02 11:48:45;;;;;;;6.78;2.08;;;;;;;32.84;24.64;101817.44;5033640;28;20041;-58
2023/06/02 11:51:15;;;;;;;11.18;2.50;;;;;;;33.10;24.05;101827.06;5049180;28;20017;-58
2023/06/02 11:53:45;;;;;;;7.13;1.90;;;;;;;33.27;24.85;101821.47;5033523;28;20044;-58
2023/06/02 11:56:15;;;;;;;6.80;2.15;;;;;;;33.41;23.33;101811.66;5033346;28;20041;-59
2023/06/02 11:58:41;;;;;;;6.85;2.13;;;;;;;33.64;23.67;101803.09;5033658;28;20044;-58
2023/06/02 12:01:08;;;;;;;6.97;3.05;;;;;;;33.57;23.39;101799.69;5033620;28;20042;-58
2023/06/02 12:03:34;;;;;;;4.78;2.90;;;;;;;33.93;24.29;101815.72;5033719;28;20113;-58
2023/06/02 12:06:13;;;;;;;8.65;2.60;;;;;;;34.09;24.07;101807.59;5033285;28;20041;-58
2023/06/02 12:08:39;;;;;;;9.20;3.15;;;;;;;34.36;22.62;101802.88;5033409;28;20029;-58
2023/06/02 12:11:16;;;;;;;5.90;2.92;;;;;;;34.57;22.89;101803.88;5033498;28;20033;-58
2023/06/02 12:13:59;;;;;;;10.15;2.58;;;;;;;34.75;22.98;101798.81;5033290;28;20033;-58
2023/06/02 12:16:24;;;;;;;;;;;;;;;35.03;23.48;101795.66;5032485;28;20084;-58
2023/06/02 12:18:51;;;;;;;7.93;2.97;;;;;;;35.21;22.58;101797.19;5033192;28;19917;-58
2023/06/02 12:21:38;;;;;;;9.73;2.63;;;;;;;35.35;21.76;101800.34;5031746;28;20034;-58